sensor_id;sensor_type;location;lat;lon;timestamp;pressure;altitude;pressure_sealevel;temperature;humidity
12987;BME280;58897;51.960;5.582;2023-12-20T00:01:55;101358.94;;;6.32;100.00
12987;BME280;58897;51.960;5.582;2023-12-20T00:04:22;101358.84;;;6.22;100.00
12987;BME280;58897;51.960;5.582;2023-12-20T00:06:49;101360.56;;;6.23;100.00
12987;BME280;58897;51.960;5.582;2023-12-20T00:09:16;101363.59;;;6.18;100.00
12987;BME280;58897;51.960;5.582;2023-12-20T00:11:43;101363.97;;;6.25;100.00
12987;BME280;58897;51.960;5.582;2023-12-20T00:14:09;101363.59;;;6.18;100.00
12987;BME280;58897;51.960;5.582;2023-12-20T00:16:36;101359.31;;;6.05;100.00
12987;BME280;58897;51.960;5.582;2023-12-20T00:19:03;101350.56;;;6.03;100.00
12987;BME280;58897;51.960;5.582;2023-12-20T00:21:29;101349.94;;;6.10;100.00
12987;BME280;58897;51.960;5.582;2023-12-20T00:23:56;101345.91;;;6.05;100.00
12987;BME280;58897;51.960;5.582;2023-12-20T00:26:22;101341.66;;;6.02;100.00
12987;BME280;58897;51.960;5.582;2023-12-20T00:28:49;101341.91;;;5.88;100.00
12987;BME280;58897;51.960;5.582;2023-12-20T00:31:16;101341.28;;;5.96;100.00
12987;BME280;58897;51.960;5.582;2023-12-20T00:33:42;101341.91;;;5.88;100.00
12987;BME280;58897;51.960;5.582;2023-12-20T00:36:10;101333.00;;;5.88;100.00
12987;BME280;58897;51.960;5.582;2023-12-20T00:38:37;101336.66;;;5.87;100.00
12987;BME280;58897;51.960;5.582;2023-12-20T00:41:03;101332.72;;;5.80;100.00
12987;BME280;58897;51.960;5.582;2023-12-20T00:43:30;101335.41;;;5.80;100.00
12987;BME280;58897;51.960;5.582;2023-12-20T00:45:57;101339.31;;;5.87;100.00
12987;BME280;58897;51.960;5.582;2023-12-20T00:48:23;101346.66;;;5.85;100.00
12987;BME280;58897;51.960;5.582;2023-12-20T00:50:50;101346.75;;;5.83;100.00
12987;BME280;58897;51.960;5.582;2023-12-20T00:53:17;101337.84;;;5.83;100.00
12987;BME280;58897;51.960;5.582;2023-12-20T00:55:43;101341.00;;;5.77;100.00
12987;BME280;58897;51.960;5.582;2023-12-20T00:58:11;101330.28;;;5.66;100.00
12987;BME280;58897;51.960;5.582;2023-12-20T01:00:37;101343.06;;;5.62;100.00
12987;BME280;58897;51.960;5.582;2023-12-20T01:03:08;101345.25;;;5.79;100.00
12987;BME280;58897;51.960;5.582;2023-12-20T01:05:34;101345.16;;;5.70;100.00
12987;BME280;58897;51.960;5.582;2023-12-20T01:08:01;101339.28;;;5.65;100.00
12987;BME280;58897;51.960;5.582;2023-12-20T01:10:29;101337.69;;;5.62;100.00
12987;BME280;58897;51.960;5.582;2023-12-20T01:12:56;101334.63;;;5.55;100.00
12987;BME280;58897;51.960;5.582;2023-12-20T01:15:22;101339.66;;;5.60;100.00
12987;BME280;58897;51.960;5.582;2023-12-20T01:17:49;101325.13;;;5.51;100.00
12987;BME280;58897;51.960;5.582;2023-12-20T01:20:16;101334.16;;;5.61;100.00
12987;BME280;58897;51.960;5.582;2023-12-20T01:22:43;101329.16;;;5.57;100.00
12987;BME280;58897;51.960;5.582;2023-12-20T01:25:12;101330.03;;;5.57;100.00
12987;BME280;58897;51.960;5.582;2023-12-20T01:27:39;101330.63;;;5.61;100.00
12987;BME280;58897;51.960;5.582;2023-12-20T01:30:06;101332.22;;;5.52;100.00
12987;BME280;58897;51.960;5.582;2023-12-20T01:32:32;101337.56;;;5.52;100.00
12987;BME280;58897;51.960;5.582;2023-12-20T01:34:59;101334.41;;;5.47;100.00
12987;BME280;58897;51.960;5.582;2023-12-20T01:37:28;101340.72;;;5.46;100.00
12987;BME280;58897;51.960;5.582;2023-12-20T01:39:56;101334.03;;;5.52;100.00
12987;BME280;58897;51.960;5.582;2023-12-20T01:42:22;101332.56;;;5.48;100.00
12987;BME280;58897;51.960;5.582;2023-12-20T01:44:49;101330.09;;;5.34;100.00
12987;BME280;58897;51.960;5.582;2023-12-20T01:47:16;101340.09;;;5.43;100.00
12987;BME280;58897;51.960;5.582;2023-12-20T01:49:43;101338.50;;;5.40;100.00
12987;BME280;58897;51.960;5.582;2023-12-20T01:52:10;101346.81;;;5.48;100.00
12987;BME280;58897;51.960;5.582;2023-12-20T01:54:38;101347.53;;;5.50;100.00
12987;BME280;58897;51.960;5.582;2023-12-20T01:57:07;101338.06;;;5.69;100.00
12987;BME280;58897;51.960;5.582;2023-12-20T01:59:34;101335.66;;;5.66;100.00
12987;BME280;58897;51.960;5.582;2023-12-20T02:02:03;101331.13;;;5.66;100.00
12987;BME280;58897;51.960;5.582;2023-12-20T02:04:30;101326.13;;;5.61;100.00
12987;BME280;58897;51.960;5.582;2023-12-20T02:06:57;101334.78;;;5.65;100.00
12987;BME280;58897;51.960;5.582;2023-12-20T02:09:25;101333.03;;;5.53;100.00
12987;BME280;58897;51.960;5.582;2023-12-20T02:11:53;101332.69;;;5.69;100.00
12987;BME280;58897;51.960;5.582;2023-12-20T02:14:20;101336.59;;;5.53;100.00
12987;BME280;58897;51.960;5.582;2023-12-20T02:16:47;101335.75;;;5.64;100.00
12987;BME280;58897;51.960;5.582;2023-12-20T02:19:14;101328.09;;;5.71;100.00
12987;BME280;58897;51.960;5.582;2023-12-20T02:21:42;101334.56;;;5.68;100.00
12987;BME280;58897;51.960;5.582;2023-12-20T02:24:08;101336.47;;;5.66;100.00
12987;BME280;58897;51.960;5.582;2023-12-20T02:26:35;101336.47;;;5.66;100.00
12987;BME280;58897;51.960;5.582;2023-12-20T02:29:02;101327.72;;;5.64;100.00
12987;BME280;58897;51.960;5.582;2023-12-20T02:31:28;101333.66;;;5.56;100.00
12987;BME280;58897;51.960;5.582;2023-12-20T02:33:55;101329.16;;;5.57;100.00
12987;BME280;58897;51.960;5.582;2023-12-20T02:36:22;101325.16;;;5.63;100.00
12987;BME280;58897;51.960;5.582;2023-12-20T02:38:48;101316.72;;;5.56;100.00
12987;BME280;58897;51.960;5.582;2023-12-20T02:41:16;101321.38;;;5.54;100.00
12987;BME280;58897;51.960;5.582;2023-12-20T02:43:45;101314.53;;;5.61;100.00
12987;BME280;58897;51.960;5.582;2023-12-20T02:46:12;101311.63;;;5.64;100.00
12987;BME280;58897;51.960;5.582;2023-12-20T02:48:40;101299.94;;;5.65;100.00
12987;BME280;58897;51.960;5.582;2023-12-20T02:51:06;101305.41;;;5.52;100.00
12987;BME280;58897;51.960;5.582;2023-12-20T02:53:33;101306.25;;;5.64;100.00
12987;BME280;58897;51.960;5.582;2023-12-20T02:55:59;101307.75;;;5.68;100.00
12987;BME280;58897;51.960;5.582;2023-12-20T02:58:26;101312.75;;;5.73;100.00
12987;BME280;58897;51.960;5.582;2023-12-20T03:00:52;101319.19;;;5.70;100.00
12987;BME280;58897;51.960;5.582;2023-12-20T03:03:19;101309.44;;;5.69;100.00
12987;BME280;58897;51.960;5.582;2023-12-20T03:05:45;101309.56;;;5.68;100.00
12987;BME280;58897;51.960;5.582;2023-12-20T03:08:13;101311.53;;;5.66;100.00
12987;BME280;58897;51.960;5.582;2023-12-20T03:10:39;101304.22;;;5.68;100.00
12987;BME280;58897;51.960;5.582;2023-12-20T03:13:06;101294.19;;;5.58;100.00
12987;BME280;58897;51.960;5.582;2023-12-20T03:15:32;101292.25;;;5.60;100.00
12987;BME280;58897;51.960;5.582;2023-12-20T03:17:59;101289.31;;;5.63;100.00
12987;BME280;58897;51.960;5.582;2023-12-20T03:20:26;101291.41;;;5.60;100.00
12987;BME280;58897;51.960;5.582;2023-12-20T03:22:52;101288.84;;;5.58;100.00
12987;BME280;58897;51.960;5.582;2023-12-20T03:25:19;101287.00;;;5.59;100.00
12987;BME280;58897;51.960;5.582;2023-12-20T03:27:45;101283.38;;;5.60;100.00
12987;BME280;58897;51.960;5.582;2023-12-20T03:30:12;101283.47;;;5.58;100.00
12987;BME280;58897;51.960;5.582;2023-12-20T03:32:39;101285.06;;;5.61;100.00
12987;BME280;58897;51.960;5.582;2023-12-20T03:35:06;101284.34;;;5.59;100.00
12987;BME280;58897;51.960;5.582;2023-12-20T03:37:32;101284.72;;;5.66;100.00
12987;BME280;58897;51.960;5.582;2023-12-20T03:39:59;101287.03;;;5.70;100.00
12987;BME280;58897;51.960;5.582;2023-12-20T03:42:26;101282.41;;;5.72;100.00
12987;BME280;58897;51.960;5.582;2023-12-20T03:44:53;101283.97;;;5.75;100.00
12987;BME280;58897;51.960;5.582;2023-12-20T03:47:19;101282.78;;;5.79;100.00
12987;BME280;58897;51.960;5.582;2023-12-20T03:49:46;101284.59;;;5.78;100.00
12987;BME280;58897;51.960;5.582;2023-12-20T03:52:12;101286.03;;;5.82;100.00
12987;BME280;58897;51.960;5.582;2023-12-20T03:54:40;101291.06;;;5.87;100.00
12987;BME280;58897;51.960;5.582;2023-12-20T03:57:08;101283.88;;;5.87;100.00
12987;BME280;58897;51.960;5.582;2023-12-20T03:59:35;101284.50;;;5.91;100.00
12987;BME280;58897;51.960;5.582;2023-12-20T04:02:03;101271.56;;;5.85;100.00
12987;BME280;58897;51.960;5.582;2023-12-20T04:04:30;101271.47;;;5.86;100.00
12987;BME280;58897;51.960;5.582;2023-12-20T04:06:57;101278.53;;;5.87;100.00
12987;BME280;58897;51.960;5.582;2023-12-20T04:09:24;101276.03;;;5.84;100.00
12987;BME280;58897;51.960;5.582;2023-12-20T04:11:50;101285.59;;;5.88;100.00
12987;BME280;58897;51.960;5.582;2023-12-20T04:14:17;101290.59;;;5.93;100.00
12987;BME280;58897;51.960;5.582;2023-12-20T04:16:44;101279.25;;;6.00;100.00
12987;BME280;58897;51.960;5.582;2023-12-20T04:19:13;101278.53;;;5.98;100.00
12987;BME280;58897;51.960;5.582;2023-12-20T04:21:39;101280.25;;;5.99;100.00
12987;BME280;58897;51.960;5.582;2023-12-20T04:24:06;101278.91;;;5.94;100.00
12987;BME280;58897;51.960;5.582;2023-12-20T04:26:33;101276.31;;;5.92;100.00
12987;BME280;58897;51.960;5.582;2023-12-20T04:28:59;101277.66;;;5.98;100.00
12987;BME280;58897;51.960;5.582;2023-12-20T04:31:26;101279.38;;;5.99;100.00
12987;BME280;58897;51.960;5.582;2023-12-20T04:33:52;101280.09;;;6.01;100.00
12987;BME280;58897;51.960;5.582;2023-12-20T04:36:19;101273.38;;;6.06;100.00
12987;BME280;58897;51.960;5.582;2023-12-20T04:38:46;101278.75;;;6.06;100.00
12987;BME280;58897;51.960;5.582;2023-12-20T04:41:12;101278.63;;;6.08;100.00
12987;BME280;58897;51.960;5.582;2023-12-20T04:43:42;101280.09;;;6.12;100.00
12987;BME280;58897;51.960;5.582;2023-12-20T04:46:09;101292.16;;;6.17;100.00
12987;BME280;58897;51.960;5.582;2023-12-20T04:48:36;101281.53;;;6.16;100.00
12987;BME280;58897;51.960;5.582;2023-12-20T04:51:03;101281.16;;;6.20;100.00
12987;BME280;58897;51.960;5.582;2023-12-20T04:53:30;101284.59;;;6.22;100.00
12987;BME280;58897;51.960;5.582;2023-12-20T04:55:56;101289.72;;;6.14;100.00
12987;BME280;58897;51.960;5.582;2023-12-20T04:58:23;101278.47;;;6.20;100.00
12987;BME280;58897;51.960;5.582;2023-12-20T05:00:50;101258.97;;;6.18;100.00
12987;BME280;58897;51.960;5.582;2023-12-20T05:03:17;101258.75;;;6.10;100.00
12987;BME280;58897;51.960;5.582;2023-12-20T05:05:43;101254.72;;;6.16;100.00
12987;BME280;58897;51.960;5.582;2023-12-20T05:08:10;101258.13;;;6.18;100.00
12987;BME280;58897;51.960;5.582;2023-12-20T05:10:37;101251.91;;;6.17;100.00
12987;BME280;58897;51.960;5.582;2023-12-20T05:13:03;101255.56;;;6.16;100.00
12987;BME280;58897;51.960;5.582;2023-12-20T05:15:30;101246.28;;;6.20;100.00
12987;BME280;58897;51.960;5.582;2023-12-20T05:17:57;101238.13;;;6.22;100.00
12987;BME280;58897;51.960;5.582;2023-12-20T05:20:23;101238.00;;;6.23;100.00
12987;BME280;58897;51.960;5.582;2023-12-20T05:22:50;101233.47;;;6.24;100.00
12987;BME280;58897;51.960;5.582;2023-12-20T05:25:17;101231.41;;;6.28;100.00
12987;BME280;58897;51.960;5.582;2023-12-20T05:27:43;101239.47;;;6.28;100.00
12987;BME280;58897;51.960;5.582;2023-12-20T05:30:11;101237.63;;;6.28;100.00
12987;BME280;58897;51.960;5.582;2023-12-20T05:32:38;101237.34;;;6.31;100.00
12987;BME280;58897;51.960;5.582;2023-12-20T05:35:04;101237.03;;;6.25;100.00
12987;BME280;58897;51.960;5.582;2023-12-20T05:37:31;101232.38;;;6.27;100.00
12987;BME280;58897;51.960;5.582;2023-12-20T05:39:58;101238.22;;;6.32;100.00
12987;BME280;58897;51.960;5.582;2023-12-20T05:42:25;101244.81;;;6.28;100.00
12987;BME280;58897;51.960;5.582;2023-12-20T05:44:51;101254.31;;;6.32;100.00
12987;BME280;58897;51.960;5.582;2023-12-20T05:47:20;101252.63;;;6.31;100.00
12987;BME280;58897;51.960;5.582;2023-12-20T05:49:47;101254.69;;;6.27;100.00
12987;BME280;58897;51.960;5.582;2023-12-20T05:52:14;101258.09;;;6.29;100.00
12987;BME280;58897;51.960;5.582;2023-12-20T05:54:41;101262.59;;;6.29;100.00
12987;BME280;58897;51.960;5.582;2023-12-20T05:57:07;101258.00;;;6.31;100.00
12987;BME280;58897;51.960;5.582;2023-12-20T05:59:34;101252.72;;;6.29;100.00
12987;BME280;58897;51.960;5.582;2023-12-20T06:02:00;101263.47;;;6.29;100.00
12987;BME280;58897;51.960;5.582;2023-12-20T06:04:27;101270.41;;;6.32;100.00
12987;BME280;58897;51.960;5.582;2023-12-20T06:06:53;101263.34;;;6.31;100.00
12987;BME280;58897;51.960;5.582;2023-12-20T06:09:20;101258.56;;;6.34;100.00
12987;BME280;58897;51.960;5.582;2023-12-20T06:11:47;101257.59;;;6.35;100.00
12987;BME280;58897;51.960;5.582;2023-12-20T06:14:13;101255.31;;;6.31;100.00
12987;BME280;58897;51.960;5.582;2023-12-20T06:16:40;101256.13;;;6.31;100.00
12987;BME280;58897;51.960;5.582;2023-12-20T06:19:06;101247.84;;;6.34;100.00
12987;BME280;58897;51.960;5.582;2023-12-20T06:21:36;101248.84;;;6.33;100.00
12987;BME280;58897;51.960;5.582;2023-12-20T06:24:03;101235.41;;;6.33;100.00
12987;BME280;58897;51.960;5.582;2023-12-20T06:26:30;101239.44;;;6.39;100.00
12987;BME280;58897;51.960;5.582;2023-12-20T06:28:56;101244.19;;;6.35;100.00
12987;BME280;58897;51.960;5.582;2023-12-20T06:31:23;101242.13;;;6.39;100.00
12987;BME280;58897;51.960;5.582;2023-12-20T06:33:49;101242.22;;;6.37;100.00
12987;BME280;58897;51.960;5.582;2023-12-20T06:36:24;101249.06;;;6.41;100.00
12987;BME280;58897;51.960;5.582;2023-12-20T06:38:51;101252.00;;;6.38;100.00
12987;BME280;58897;51.960;5.582;2023-12-20T06:41:18;101242.69;;;6.42;100.00
12987;BME280;58897;51.960;5.582;2023-12-20T06:43:44;101247.72;;;6.36;100.00
12987;BME280;58897;51.960;5.582;2023-12-20T06:46:16;101243.19;;;6.36;100.00
12987;BME280;58897;51.960;5.582;2023-12-20T06:48:44;101242.13;;;6.39;100.00
12987;BME280;58897;51.960;5.582;2023-12-20T06:51:14;101240.50;;;6.36;100.00
12987;BME280;58897;51.960;5.582;2023-12-20T06:53:41;101245.03;;;6.36;100.00
12987;BME280;58897;51.960;5.582;2023-12-20T06:56:08;101236.84;;;6.37;100.00
12987;BME280;58897;51.960;5.582;2023-12-20T06:58:35;101234.88;;;6.39;100.00
12987;BME280;58897;51.960;5.582;2023-12-20T07:01:03;101228.41;;;6.42;100.00
12987;BME280;58897;51.960;5.582;2023-12-20T07:03:31;101233.78;;;6.42;100.00
12987;BME280;58897;51.960;5.582;2023-12-20T07:05:57;101235.88;;;6.38;100.00
12987;BME280;58897;51.960;5.582;2023-12-20T07:08:24;101235.88;;;6.38;100.00
12987;BME280;58897;51.960;5.582;2023-12-20T07:10:51;101226.00;;;6.39;100.00
12987;BME280;58897;51.960;5.582;2023-12-20T07:13:17;101232.97;;;6.41;100.00
12987;BME280;58897;51.960;5.582;2023-12-20T07:15:44;101229.16;;;6.44;100.00
12987;BME280;58897;51.960;5.582;2023-12-20T07:18:10;101219.41;;;6.43;100.00
12987;BME280;58897;51.960;5.582;2023-12-20T07:20:37;101219.88;;;6.48;100.00
12987;BME280;58897;51.960;5.582;2023-12-20T07:23:04;101223.66;;;6.45;100.00
12987;BME280;58897;51.960;5.582;2023-12-20T07:25:31;101225.38;;;6.46;100.00
12987;BME280;58897;51.960;5.582;2023-12-20T07:28:00;101228.63;;;6.50;100.00
12987;BME280;58897;51.960;5.582;2023-12-20T07:30:27;101220.84;;;6.47;100.00
12987;BME280;58897;51.960;5.582;2023-12-20T07:32:54;101219.00;;;6.47;100.00
12987;BME280;58897;51.960;5.582;2023-12-20T07:35:21;101211.31;;;6.54;100.00
12987;BME280;58897;51.960;5.582;2023-12-20T07:37:47;101215.09;;;6.51;100.00
12987;BME280;58897;51.960;5.582;2023-12-20T07:40:14;101218.38;;;6.55;100.00
12987;BME280;58897;51.960;5.582;2023-12-20T07:42:43;101204.38;;;6.51;100.00
12987;BME280;58897;51.960;5.582;2023-12-20T07:45:10;101207.78;;;6.53;100.00
12987;BME280;58897;51.960;5.582;2023-12-20T07:47:39;101214.00;;;6.54;100.00
12987;BME280;58897;51.960;5.582;2023-12-20T07:50:07;101202.47;;;6.63;100.00
12987;BME280;58897;51.960;5.582;2023-12-20T07:52:34;101220.69;;;6.59;100.00
12987;BME280;58897;51.960;5.582;2023-12-20T07:55:01;101220.78;;;6.58;100.00
12987;BME280;58897;51.960;5.582;2023-12-20T07:57:29;101225.31;;;6.57;100.00
12987;BME280;58897;51.960;5.582;2023-12-20T07:59:56;101232.25;;;6.60;100.00
12987;BME280;58897;51.960;5.582;2023-12-20T08:02:22;101227.16;;;6.57;100.00
12987;BME280;58897;51.960;5.582;2023-12-20T08:04:49;101239.34;;;6.61;100.00
12987;BME280;58897;51.960;5.582;2023-12-20T08:07:15;101239.94;;;6.64;100.00
12987;BME280;58897;51.960;5.582;2023-12-20T08:09:42;101239.94;;;6.64;100.00
12987;BME280;58897;51.960;5.582;2023-12-20T08:12:10;101244.31;;;6.65;100.00
12987;BME280;58897;51.960;5.582;2023-12-20T08:14:37;101239.09;;;6.64;100.00
12987;BME280;58897;51.960;5.582;2023-12-20T08:17:04;101239.81;;;6.66;100.00
12987;BME280;58897;51.960;5.582;2023-12-20T08:19:30;101242.47;;;6.66;100.00
12987;BME280;58897;51.960;5.582;2023-12-20T08:21:57;101245.88;;;6.68;100.00
12987;BME280;58897;51.960;5.582;2023-12-20T08:24:24;101246.63;;;6.70;100.00
12987;BME280;58897;51.960;5.582;2023-12-20T08:26:50;101237.72;;;6.69;100.00
12987;BME280;58897;51.960;5.582;2023-12-20T08:29:17;101231.50;;;6.69;100.00
12987;BME280;58897;51.960;5.582;2023-12-20T08:31:43;101230.38;;;6.71;100.00
12987;BME280;58897;51.960;5.582;2023-12-20T08:34:10;101222.47;;;6.70;100.00
12987;BME280;58897;51.960;5.582;2023-12-20T08:36:38;101225.00;;;6.71;100.00
12987;BME280;58897;51.960;5.582;2023-12-20T08:39:05;101223.03;;;6.73;100.00
12987;BME280;58897;51.960;5.582;2023-12-20T08:41:35;101223.19;;;6.72;100.00
12987;BME280;58897;51.960;5.582;2023-12-20T08:44:01;101223.28;;;6.70;100.00
12987;BME280;58897;51.960;5.582;2023-12-20T08:46:28;101218.53;;;6.74;100.00
12987;BME280;58897;51.960;5.582;2023-12-20T08:48:55;101222.94;;;6.75;100.00
12987;BME280;58897;51.960;5.582;2023-12-20T08:51:24;101234.63;;;6.74;100.00
12987;BME280;58897;51.960;5.582;2023-12-20T08:53:52;101228.31;;;6.75;100.00
12987;BME280;58897;51.960;5.582;2023-12-20T08:56:19;101222.06;;;6.74;100.00
12987;BME280;58897;51.960;5.582;2023-12-20T08:58:48;101225.63;;;6.75;100.00
12987;BME280;58897;51.960;5.582;2023-12-20T09:01:15;101228.31;;;6.75;100.00
12987;BME280;58897;51.960;5.582;2023-12-20T09:03:42;101225.22;;;6.79;100.00
12987;BME280;58897;51.960;5.582;2023-12-20T09:06:10;101220.97;;;6.77;100.00
12987;BME280;58897;51.960;5.582;2023-12-20T09:08:37;101230.69;;;6.78;100.00
12987;BME280;58897;51.960;5.582;2023-12-20T09:11:03;101229.88;;;6.77;100.00
12987;BME280;58897;51.960;5.582;2023-12-20T09:13:31;101222.19;;;6.73;100.00
12987;BME280;58897;51.960;5.582;2023-12-20T09:15:58;101236.63;;;6.72;100.00
12987;BME280;58897;51.960;5.582;2023-12-20T09:18:25;101234.91;;;6.71;100.00
12987;BME280;58897;51.960;5.582;2023-12-20T09:20:52;101239.66;;;6.67;100.00
12987;BME280;58897;51.960;5.582;2023-12-20T09:23:18;101227.44;;;6.74;100.00
12987;BME280;58897;51.960;5.582;2023-12-20T09:25:45;101232.41;;;6.79;100.00
12987;BME280;58897;51.960;5.582;2023-12-20T09:28:12;101238.28;;;6.73;100.00
12987;BME280;58897;51.960;5.582;2023-12-20T09:30:38;101233.53;;;6.76;100.00
12987;BME280;58897;51.960;5.582;2023-12-20T09:33:07;101232.03;;;6.83;100.00
12987;BME280;58897;51.960;5.582;2023-12-20T09:39:13;101221.63;;;6.90;100.00
12987;BME280;58897;51.960;5.582;2023-12-20T09:41:43;101226.84;;;6.92;100.00
12987;BME280;58897;51.960;5.582;2023-12-20T09:44:16;101217.44;;;6.97;100.00
12987;BME280;58897;51.960;5.582;2023-12-20T09:46:45;101214.03;;;6.95;100.00
12987;BME280;58897;51.960;5.582;2023-12-20T09:49:17;101204.97;;;6.96;100.00
12987;BME280;58897;51.960;5.582;2023-12-20T09:51:46;101222.53;;;7.00;100.00
12987;BME280;58897;51.960;5.582;2023-12-20T09:54:20;101219.59;;;7.03;100.00
12987;BME280;58897;51.960;5.582;2023-12-20T09:56:47;101221.56;;;7.01;100.00
12987;BME280;58897;51.960;5.582;2023-12-20T09:59:14;101227.66;;;7.03;100.00
12987;BME280;58897;51.960;5.582;2023-12-20T10:01:41;101226.53;;;7.06;100.00
12987;BME280;58897;51.960;5.582;2023-12-20T10:04:10;101214.69;;;7.08;100.00
12987;BME280;58897;51.960;5.582;2023-12-20T10:06:54;101234.44;;;7.07;100.00
12987;BME280;58897;51.960;5.582;2023-12-20T10:09:23;101238.00;;;7.08;100.00
12987;BME280;58897;51.960;5.582;2023-12-20T10:11:54;101234.44;;;7.07;100.00
12987;BME280;58897;51.960;5.582;2023-12-20T10:14:21;101235.91;;;7.11;100.00
12987;BME280;58897;51.960;5.582;2023-12-20T10:16:49;101242.59;;;7.17;100.00
12987;BME280;58897;51.960;5.582;2023-12-20T10:19:17;101238.78;;;7.19;100.00
12987;BME280;58897;51.960;5.582;2023-12-20T10:21:44;101241.34;;;7.21;100.00
12987;BME280;58897;51.960;5.582;2023-12-20T10:24:17;101241.34;;;7.21;100.00
12987;BME280;58897;51.960;5.582;2023-12-20T10:26:44;101239.25;;;7.24;100.00
12987;BME280;58897;51.960;5.582;2023-12-20T10:29:10;101238.13;;;7.27;100.00
12987;BME280;58897;51.960;5.582;2023-12-20T10:31:37;101241.94;;;7.24;100.00
12987;BME280;58897;51.960;5.582;2023-12-20T10:34:09;101233.47;;;7.29;100.00
12987;BME280;58897;51.960;5.582;2023-12-20T10:36:36;101222.72;;;7.29;100.00
12987;BME280;58897;51.960;5.582;2023-12-20T10:39:03;101231.22;;;7.34;100.00
12987;BME280;58897;51.960;5.582;2023-12-20T10:41:33;101227.28;;;7.38;100.00
12987;BME280;58897;51.960;5.582;2023-12-20T10:44:02;101218.84;;;7.42;100.00
12987;BME280;58897;51.960;5.582;2023-12-20T10:46:32;101220.25;;;7.46;100.00
12987;BME280;58897;51.960;5.582;2023-12-20T10:49:02;101216.88;;;7.44;100.00
12987;BME280;58897;51.960;5.582;2023-12-20T10:51:30;101213.91;;;7.47;100.00
12987;BME280;58897;51.960;5.582;2023-12-20T10:53:57;101212.78;;;7.50;100.00
12987;BME280;58897;51.960;5.582;2023-12-20T10:56:25;101208.84;;;7.54;100.00
12987;BME280;58897;51.960;5.582;2023-12-20T10:58:56;101209.41;;;7.58;100.00
12987;BME280;58897;51.960;5.582;2023-12-20T11:01:24;101205.47;;;7.62;100.00
12987;BME280;58897;51.960;5.582;2023-12-20T11:03:53;101203.63;;;7.62;100.00
12987;BME280;58897;51.960;5.582;2023-12-20T11:06:27;101197.84;;;7.67;100.00
12987;BME280;58897;51.960;5.582;2023-12-20T11:09:42;101188.97;;;7.76;100.00
12987;BME280;58897;51.960;5.582;2023-12-20T11:12:24;101188.97;;;7.76;100.00
12987;BME280;58897;51.960;5.582;2023-12-20T11:14:55;101172.97;;;7.74;100.00
12987;BME280;58897;51.960;5.582;2023-12-20T11:17:24;101178.22;;;7.76;100.00
12987;BME280;58897;51.960;5.582;2023-12-20T11:22:20;101170.03;;;7.87;100.00
12987;BME280;58897;51.960;5.582;2023-12-20T11:24:48;101176.81;;;7.91;100.00
12987;BME280;58897;51.960;5.582;2023-12-20T11:27:15;101173.59;;;7.97;100.00
12987;BME280;58897;51.960;5.582;2023-12-20T11:29:41;101173.44;;;7.98;100.00
12987;BME280;58897;51.960;5.582;2023-12-20T11:34:51;101168.63;;;7.92;100.00
12987;BME280;58897;51.960;5.582;2023-12-20T11:37:19;101163.91;;;7.85;100.00
12987;BME280;58897;51.960;5.582;2023-12-20T11:39:55;101168.47;;;7.84;100.00
12987;BME280;58897;51.960;5.582;2023-12-20T11:42:22;101149.66;;;7.84;100.00
12987;BME280;58897;51.960;5.582;2023-12-20T11:44:50;101146.66;;;7.87;100.00
12987;BME280;58897;51.960;5.582;2023-12-20T11:47:16;101152.63;;;7.91;100.00
12987;BME280;58897;51.960;5.582;2023-12-20T11:49:48;101147.13;;;7.92;100.00
12987;BME280;58897;51.960;5.582;2023-12-20T11:52:15;101148.53;;;7.96;100.00
12987;BME280;58897;51.960;5.582;2023-12-20T11:54:42;101148.09;;;8.01;100.00
12987;BME280;58897;51.960;5.582;2023-12-20T11:57:09;101149.81;;;8.02;100.00
12987;BME280;58897;51.960;5.582;2023-12-20T11:59:36;101146.84;;;8.05;100.00
12987;BME280;58897;51.960;5.582;2023-12-20T12:02:03;101142.44;;;8.04;100.00
12987;BME280;58897;51.960;5.582;2023-12-20T12:04:30;101137.22;;;8.12;100.00
12987;BME280;58897;51.960;5.582;2023-12-20T12:06:57;101130.84;;;8.23;100.00
12987;BME280;58897;51.960;5.582;2023-12-20T12:09:23;101129.31;;;8.30;100.00
12987;BME280;58897;51.960;5.582;2023-12-20T12:11:50;101129.44;;;8.47;100.00
12987;BME280;58897;51.960;5.582;2023-12-20T12:14:17;101136.97;;;8.44;100.00
12987;BME280;58897;51.960;5.582;2023-12-20T12:16:46;101130.16;;;8.40;100.00
12987;BME280;58897;51.960;5.582;2023-12-20T12:19:22;101120.13;;;8.42;100.00
12987;BME280;58897;51.960;5.582;2023-12-20T12:21:50;101122.81;;;8.51;100.00
12987;BME280;58897;51.960;5.582;2023-12-20T12:24:21;101126.34;;;8.52;100.00
12987;BME280;58897;51.960;5.582;2023-12-20T12:26:51;101120.53;;;8.47;100.00
12987;BME280;58897;51.960;5.582;2023-12-20T12:29:18;101125.22;;;8.35;100.00
12987;BME280;58897;51.960;5.582;2023-12-20T12:31:44;101116.41;;;8.24;100.00
12987;BME280;58897;51.960;5.582;2023-12-20T12:34:11;101121.81;;;8.24;100.00
12987;BME280;58897;51.960;5.582;2023-12-20T12:36:39;101123.91;;;8.20;100.00
12987;BME280;58897;51.960;5.582;2023-12-20T12:39:06;101115.13;;;8.18;100.00
12987;BME280;58897;51.960;5.582;2023-12-20T12:41:33;101112.56;;;8.17;100.00
12987;BME280;58897;51.960;5.582;2023-12-20T12:44:00;101108.75;;;8.09;100.00
12987;BME280;58897;51.960;5.582;2023-12-20T12:46:39;101111.88;;;8.05;100.00
12987;BME280;58897;51.960;5.582;2023-12-20T12:49:06;101108.44;;;8.03;100.00
12987;BME280;58897;51.960;5.582;2023-12-20T12:51:33;101110.59;;;8.09;100.00
12987;BME280;58897;51.960;5.582;2023-12-20T12:53:59;101108.59;;;8.11;100.00
12987;BME280;58897;51.960;5.582;2023-12-20T12:56:26;101101.09;;;8.15;100.00
12987;BME280;58897;51.960;5.582;2023-12-20T12:58:53;101102.09;;;8.14;100.00
12987;BME280;58897;51.960;5.582;2023-12-20T13:01:20;101095.16;;;8.11;100.00